sensor_id;sensor_type;location;lat;lon;timestamp;pressure;altitude;pressure_sealevel;temperature;humidity
14120;BME280;7138;49.246;9.100;2023-08-06T00:01:00;97928.41;;;18.41;100.00
14120;BME280;7138;49.246;9.100;2023-08-06T00:03:26;97927.44;;;18.42;100.00
14120;BME280;7138;49.246;9.100;2023-08-06T00:05:53;97927.31;;;18.45;100.00
14120;BME280;7138;49.246;9.100;2023-08-06T00:08:19;97925.69;;;18.43;100.00
14120;BME280;7138;49.246;9.100;2023-08-06T00:10:47;97915.31;;;18.41;100.00
14120;BME280;7138;49.246;9.100;2023-08-06T00:13:13;97919.59;;;18.42;100.00
14120;BME280;7138;49.246;9.100;2023-08-06T00:15:38;97918.81;;;18.40;100.00
14120;BME280;7138;49.246;9.100;2023-08-06T00:18:05;97911.97;;;18.38;100.00
14120;BME280;7138;49.246;9.100;2023-08-06T00:20:30;97912.97;;;18.35;100.00
14120;BME280;7138;49.246;9.100;2023-08-06T00:22:57;97906.88;;;18.35;100.00
14120;BME280;7138;49.246;9.100;2023-08-06T00:25:23;97911.19;;;18.36;100.00
14120;BME280;7138;49.246;9.100;2023-08-06T00:27:49;97912.81;;;18.38;100.00
14120;BME280;7138;49.246;9.100;2023-08-06T00:30:15;97905.81;;;18.39;100.00
14120;BME280;7138;49.246;9.100;2023-08-06T00:32:41;97897.88;;;18.40;100.00
14120;BME280;7138;49.246;9.100;2023-08-06T00:35:07;97903.13;;;18.40;100.00
14120;BME280;7138;49.246;9.100;2023-08-06T00:37:33;97893.56;;;18.39;100.00
14120;BME280;7138;49.246;9.100;2023-08-06T00:40:00;97896.31;;;18.36;100.00
14120;BME280;7138;49.246;9.100;2023-08-06T00:42:26;97889.31;;;18.37;100.00
14120;BME280;7138;49.246;9.100;2023-08-06T00:44:52;97896.16;;;18.39;100.00
14120;BME280;7138;49.246;9.100;2023-08-06T00:47:18;97904.31;;;18.33;100.00
14120;BME280;7138;49.246;9.100;2023-08-06T00:49:44;97896.44;;;18.33;100.00
14120;BME280;7138;49.246;9.100;2023-08-06T00:52:10;97885.06;;;18.34;100.00
14120;BME280;7138;49.246;9.100;2023-08-06T00:54:38;97877.03;;;18.39;100.00
14120;BME280;7138;49.246;9.100;2023-08-06T00:57:07;97873.28;;;18.44;100.00
14120;BME280;7138;49.246;9.100;2023-08-06T00:59:35;97873.13;;;18.47;100.00
14120;BME280;7138;49.246;9.100;2023-08-06T01:02:01;97866.97;;;18.48;100.00
14120;BME280;7138;49.246;9.100;2023-08-06T01:04:27;97859.09;;;18.50;100.00
14120;BME280;7138;49.246;9.100;2023-08-06T01:07:16;97860.09;;;18.46;100.00
14120;BME280;7138;49.246;9.100;2023-08-06T01:09:57;97859.34;;;18.44;100.00
14120;BME280;7138;49.246;9.100;2023-08-06T01:12:42;97854.28;;;18.39;100.00
14120;BME280;7138;49.246;9.100;2023-08-06T01:15:15;97859.53;;;18.39;100.00
14120;BME280;7138;49.246;9.100;2023-08-06T01:17:44;97854.28;;;18.39;100.00
14120;BME280;7138;49.246;9.100;2023-08-06T01:20:10;97846.53;;;18.38;100.00
14120;BME280;7138;49.246;9.100;2023-08-06T01:22:38;97848.97;;;18.22;100.00
14120;BME280;7138;49.246;9.100;2023-08-06T01:25:05;97835.84;;;18.24;100.00
14120;BME280;7138;49.246;9.100;2023-08-06T01:27:38;97832.09;;;18.29;100.00
14120;BME280;7138;49.246;9.100;2023-08-06T01:30:15;97834.72;;;18.29;100.00
14120;BME280;7138;49.246;9.100;2023-08-06T01:32:45;97836.53;;;18.27;100.00
14120;BME280;7138;49.246;9.100;2023-08-06T01:35:17;97837.31;;;18.29;100.00
14120;BME280;7138;49.246;9.100;2023-08-06T01:37:47;97826.84;;;18.29;100.00
14120;BME280;7138;49.246;9.100;2023-08-06T01:40:13;97821.63;;;18.29;100.00
14120;BME280;7138;49.246;9.100;2023-08-06T01:42:40;97824.16;;;18.31;100.00
14120;BME280;7138;49.246;9.100;2023-08-06T01:45:08;97812.91;;;18.29;100.00
14120;BME280;7138;49.246;9.100;2023-08-06T01:47:34;97822.25;;;18.34;100.00
14120;BME280;7138;49.246;9.100;2023-08-06T01:50:00;97807.31;;;18.36;100.00
14120;BME280;7138;49.246;9.100;2023-08-06T01:52:26;97816.00;;;18.37;100.00
14120;BME280;7138;49.246;9.100;2023-08-06T01:54:53;97819.56;;;18.36;100.00
14120;BME280;7138;49.246;9.100;2023-08-06T01:57:19;97813.63;;;18.32;100.00
14120;BME280;7138;49.246;9.100;2023-08-06T01:59:45;97818.06;;;18.30;100.00
14120;BME280;7138;49.246;9.100;2023-08-06T02:02:10;97806.97;;;18.25;100.00
14120;BME280;7138;49.246;9.100;2023-08-06T02:04:36;97798.63;;;18.17;100.00
14120;BME280;7138;49.246;9.100;2023-08-06T02:07:02;97798.47;;;18.20;100.00
14120;BME280;7138;49.246;9.100;2023-08-06T02:09:28;97799.25;;;18.22;100.00
14120;BME280;7138;49.246;9.100;2023-08-06T02:11:56;97800.84;;;18.06;100.00
14120;BME280;7138;49.246;9.100;2023-08-06T02:14:21;97802.56;;;18.07;100.00
14120;BME280;7138;49.246;9.100;2023-08-06T02:16:47;97788.56;;;18.08;100.00
14120;BME280;7138;49.246;9.100;2023-08-06T02:19:13;97788.56;;;18.08;100.00
14120;BME280;7138;49.246;9.100;2023-08-06T02:21:39;97786.72;;;18.10;100.00
14120;BME280;7138;49.246;9.100;2023-08-06T02:24:05;97777.81;;;18.14;100.00
14120;BME280;7138;49.246;9.100;2023-08-06T02:26:30;97780.34;;;18.16;100.00
14120;BME280;7138;49.246;9.100;2023-08-06T02:28:58;97770.75;;;18.16;100.00
14120;BME280;7138;49.246;9.100;2023-08-06T02:31:23;97775.97;;;18.16;100.00
14120;BME280;7138;49.246;9.100;2023-08-06T02:33:49;97766.38;;;18.17;100.00
14120;BME280;7138;49.246;9.100;2023-08-06T02:36:15;97769.75;;;18.19;100.00
14120;BME280;7138;49.246;9.100;2023-08-06T02:38:41;97767.06;;;18.20;100.00
14120;BME280;7138;49.246;9.100;2023-08-06T02:41:07;97763.53;;;18.21;100.00
14120;BME280;7138;49.246;9.100;2023-08-06T02:43:32;97750.38;;;18.23;100.00
14120;BME280;7138;49.246;9.100;2023-08-06T02:46:00;97746.00;;;18.23;100.00
14120;BME280;7138;49.246;9.100;2023-08-06T02:48:26;97750.38;;;18.23;100.00
14120;BME280;7138;49.246;9.100;2023-08-06T02:50:57;97753.84;;;18.23;100.00
14120;BME280;7138;49.246;9.100;2023-08-06T02:53:22;97764.59;;;18.17;100.00
14120;BME280;7138;49.246;9.100;2023-08-06T02:55:48;97767.22;;;18.17;100.00
14120;BME280;7138;49.246;9.100;2023-08-06T02:58:14;97760.09;;;18.21;100.00
14120;BME280;7138;49.246;9.100;2023-08-06T03:00:40;97759.94;;;18.24;100.00
14120;BME280;7138;49.246;9.100;2023-08-06T03:03:08;97754.56;;;18.27;100.00
14120;BME280;7138;49.246;9.100;2023-08-06T03:05:33;97756.19;;;18.29;100.00
14120;BME280;7138;49.246;9.100;2023-08-06T03:08:02;97759.44;;;18.34;100.00
14120;BME280;7138;49.246;9.100;2023-08-06T03:10:28;97754.13;;;18.36;100.00
14120;BME280;7138;49.246;9.100;2023-08-06T03:12:54;97752.34;;;18.36;100.00
14120;BME280;7138;49.246;9.100;2023-08-06T03:15:20;97752.28;;;18.38;100.00
14120;BME280;7138;49.246;9.100;2023-08-06T03:17:45;97755.75;;;18.38;100.00
14120;BME280;7138;49.246;9.100;2023-08-06T03:20:12;97749.56;;;18.39;100.00
14120;BME280;7138;49.246;9.100;2023-08-06T03:22:38;97761.75;;;18.40;100.00
14120;BME280;7138;49.246;9.100;2023-08-06T03:25:05;97751.28;;;18.40;100.00
14120;BME280;7138;49.246;9.100;2023-08-06T03:27:31;97752.06;;;18.42;100.00
14120;BME280;7138;49.246;9.100;2023-08-06T03:29:57;97753.69;;;18.45;100.00
14120;BME280;7138;49.246;9.100;2023-08-06T03:32:23;97754.53;;;18.45;100.00
14120;BME280;7138;49.246;9.100;2023-08-06T03:34:49;97753.59;;;18.46;100.00
14120;BME280;7138;49.246;9.100;2023-08-06T03:37:16;97754.47;;;18.47;100.00
14120;BME280;7138;49.246;9.100;2023-08-06T03:39:42;97752.69;;;18.47;100.00
14120;BME280;7138;49.246;9.100;2023-08-06T03:42:07;97757.00;;;18.48;100.00
14120;BME280;7138;49.246;9.100;2023-08-06T03:44:33;97755.22;;;18.50;100.00
14120;BME280;7138;49.246;9.100;2023-08-06T03:46:59;97749.03;;;18.51;100.00
14120;BME280;7138;49.246;9.100;2023-08-06T03:49:25;97749.97;;;18.50;100.00
14120;BME280;7138;49.246;9.100;2023-08-06T03:51:51;97755.22;;;18.50;100.00
14120;BME280;7138;49.246;9.100;2023-08-06T03:54:18;97753.50;;;18.49;100.00
14120;BME280;7138;49.246;9.100;2023-08-06T03:56:44;97748.53;;;18.43;100.00
14120;BME280;7138;49.246;9.100;2023-08-06T03:59:09;97760.75;;;18.43;100.00
14120;BME280;7138;49.246;9.100;2023-08-06T04:01:35;97758.44;;;18.37;100.00
14120;BME280;7138;49.246;9.100;2023-08-06T04:04:01;97755.13;;;18.15;100.00
14120;BME280;7138;49.246;9.100;2023-08-06T04:06:27;97764.44;;;18.01;100.00
14120;BME280;7138;49.246;9.100;2023-08-06T04:08:55;97759.56;;;17.94;100.00
14120;BME280;7138;49.246;9.100;2023-08-06T04:11:23;97755.00;;;17.79;100.00
14120;BME280;7138;49.246;9.100;2023-08-06T04:13:48;97761.59;;;17.69;100.00
14120;BME280;7138;49.246;9.100;2023-08-06T04:16:14;97762.00;;;17.60;100.00
14120;BME280;7138;49.246;9.100;2023-08-06T04:18:40;97765.78;;;17.51;100.00
14120;BME280;7138;49.246;9.100;2023-08-06T04:21:06;97762.66;;;17.43;100.00
14120;BME280;7138;49.246;9.100;2023-08-06T04:23:32;97763.91;;;17.34;100.00
14120;BME280;7138;49.246;9.100;2023-08-06T04:25:58;97764.63;;;17.18;100.00
14120;BME280;7138;49.246;9.100;2023-08-06T04:28:25;97761.22;;;17.16;100.00
14120;BME280;7138;49.246;9.100;2023-08-06T04:30:51;97756.91;;;17.15;100.00
14120;BME280;7138;49.246;9.100;2023-08-06T04:33:19;97760.50;;;17.12;100.00
14120;BME280;7138;49.246;9.100;2023-08-06T04:35:45;97762.72;;;17.01;100.00
14120;BME280;7138;49.246;9.100;2023-08-06T04:38:11;97755.03;;;16.98;100.00
14120;BME280;7138;49.246;9.100;2023-08-06T04:40:37;97749.19;;;16.91;100.00
14120;BME280;7138;49.246;9.100;2023-08-06T04:43:03;97751.94;;;16.88;100.00
14120;BME280;7138;49.246;9.100;2023-08-06T04:45:30;97765.88;;;16.87;100.00
14120;BME280;7138;49.246;9.100;2023-08-06T04:47:56;97754.63;;;16.87;100.00
14120;BME280;7138;49.246;9.100;2023-08-06T04:50:22;97747.25;;;16.75;100.00
14120;BME280;7138;49.246;9.100;2023-08-06T04:52:47;97754.13;;;16.77;100.00
14120;BME280;7138;49.246;9.100;2023-08-06T04:55:13;97745.47;;;16.77;100.00
14120;BME280;7138;49.246;9.100;2023-08-06T04:57:39;97748.22;;;16.72;100.00
14120;BME280;7138;49.246;9.100;2023-08-06T05:00:07;97760.44;;;16.72;100.00
14120;BME280;7138;49.246;9.100;2023-08-06T05:02:34;97753.66;;;16.68;100.00
14120;BME280;7138;49.246;9.100;2023-08-06T05:05:04;97752.94;;;16.64;100.00
14120;BME280;7138;49.246;9.100;2023-08-06T05:07:30;97755.66;;;16.61;100.00
14120;BME280;7138;49.246;9.100;2023-08-06T05:09:56;97756.84;;;16.53;100.00
14120;BME280;7138;49.246;9.100;2023-08-06T05:12:21;97754.06;;;16.57;100.00
14120;BME280;7138;49.246;9.100;2023-08-06T05:14:47;97762.19;;;16.50;100.00
14120;BME280;7138;49.246;9.100;2023-08-06T05:17:13;97764.41;;;16.37;100.00
14120;BME280;7138;49.246;9.100;2023-08-06T05:19:41;97762.91;;;16.31;100.00
14120;BME280;7138;49.246;9.100;2023-08-06T05:22:06;97764.00;;;16.26;100.00
14120;BME280;7138;49.246;9.100;2023-08-06T05:24:32;97770.28;;;16.20;100.00
14120;BME280;7138;49.246;9.100;2023-08-06T05:26:58;97766.03;;;16.18;100.00
14120;BME280;7138;49.246;9.100;2023-08-06T05:29:24;97764.00;;;16.26;100.00
14120;BME280;7138;49.246;9.100;2023-08-06T05:31:50;97768.25;;;16.28;100.00
14120;BME280;7138;49.246;9.100;2023-08-06T05:34:15;97765.63;;;16.28;100.00
14120;BME280;7138;49.246;9.100;2023-08-06T05:36:42;97770.78;;;16.30;100.00
14120;BME280;7138;49.246;9.100;2023-08-06T05:39:08;97767.31;;;16.29;100.00
14120;BME280;7138;49.246;9.100;2023-08-06T05:41:34;97777.72;;;16.31;100.00
14120;BME280;7138;49.246;9.100;2023-08-06T05:44:00;97774.84;;;16.37;100.00
14120;BME280;7138;49.246;9.100;2023-08-06T05:46:26;97766.19;;;16.36;100.00
14120;BME280;7138;49.246;9.100;2023-08-06T05:48:51;97764.66;;;16.31;100.00
14120;BME280;7138;49.246;9.100;2023-08-06T05:51:17;97768.00;;;16.34;100.00
14120;BME280;7138;49.246;9.100;2023-08-06T05:53:45;97768.78;;;16.36;100.00
14120;BME280;7138;49.246;9.100;2023-08-06T05:56:12;97776.63;;;16.36;100.00
14120;BME280;7138;49.246;9.100;2023-08-06T05:58:38;97761.97;;;16.32;100.00
14120;BME280;7138;49.246;9.100;2023-08-06T06:01:04;97767.78;;;16.40;100.00
14120;BME280;7138;49.246;9.100;2023-08-06T06:03:30;97767.56;;;16.45;100.00
14120;BME280;7138;49.246;9.100;2023-08-06T06:05:55;97771.03;;;16.46;100.00
14120;BME280;7138;49.246;9.100;2023-08-06T06:08:21;97768.25;;;16.50;100.00
14120;BME280;7138;49.246;9.100;2023-08-06T06:10:48;97768.19;;;16.52;100.00
14120;BME280;7138;49.246;9.100;2023-08-06T06:13:14;97779.41;;;16.55;100.00
14120;BME280;7138;49.246;9.100;2023-08-06T06:15:40;97777.53;;;16.59;100.00
14120;BME280;7138;49.246;9.100;2023-08-06T06:18:06;97771.31;;;16.61;100.00
14120;BME280;7138;49.246;9.100;2023-08-06T06:20:32;97776.47;;;16.63;100.00
14120;BME280;7138;49.246;9.100;2023-08-06T06:23:02;97780.66;;;16.67;100.00
14120;BME280;7138;49.246;9.100;2023-08-06T06:25:28;97784.06;;;16.69;100.00
14120;BME280;7138;49.246;9.100;2023-08-06T06:27:55;97777.88;;;16.71;100.00
14120;BME280;7138;49.246;9.100;2023-08-06T06:30:21;97781.28;;;16.73;100.00
14120;BME280;7138;49.246;9.100;2023-08-06T06:32:47;97783.94;;;16.72;100.00
14120;BME280;7138;49.246;9.100;2023-08-06T06:35:13;97782.00;;;16.77;100.00
14120;BME280;7138;49.246;9.100;2023-08-06T06:37:39;97784.75;;;16.74;100.00
14120;BME280;7138;49.246;9.100;2023-08-06T06:40:06;97789.16;;;16.72;100.00
14120;BME280;7138;49.246;9.100;2023-08-06T06:42:32;97789.22;;;16.70;100.00
14120;BME280;7138;49.246;9.100;2023-08-06T06:44:59;97783.75;;;16.55;100.00
14120;BME280;7138;49.246;9.100;2023-08-06T06:47:26;97786.31;;;16.56;100.00
14120;BME280;7138;49.246;9.100;2023-08-06T06:49:51;97790.72;;;16.54;100.00
14120;BME280;7138;49.246;9.100;2023-08-06T06:52:17;97788.22;;;16.51;100.00
14120;BME280;7138;49.246;9.100;2023-08-06T06:54:43;97791.91;;;16.46;100.00
14120;BME280;7138;49.246;9.100;2023-08-06T06:57:09;97790.31;;;16.41;100.00
14120;BME280;7138;49.246;9.100;2023-08-06T06:59:35;97793.88;;;16.40;100.00
14120;BME280;7138;49.246;9.100;2023-08-06T07:02:02;97799.25;;;16.36;100.00
14120;BME280;7138;49.246;9.100;2023-08-06T07:04:28;97794.13;;;16.33;100.00
14120;BME280;7138;49.246;9.100;2023-08-06T07:06:54;97793.34;;;16.31;100.00
14120;BME280;7138;49.246;9.100;2023-08-06T07:09:20;97795.22;;;16.27;100.00
14120;BME280;7138;49.246;9.100;2023-08-06T07:11:45;97789.22;;;16.25;100.00
14120;BME280;7138;49.246;9.100;2023-08-06T07:14:11;97798.50;;;16.32;100.00
14120;BME280;7138;49.246;9.100;2023-08-06T07:16:37;97787.84;;;16.38;100.00
14120;BME280;7138;49.246;9.100;2023-08-06T07:19:04;97789.78;;;16.33;100.00
14120;BME280;7138;49.246;9.100;2023-08-06T07:21:31;97790.00;;;16.27;100.00
14120;BME280;7138;49.246;9.100;2023-08-06T07:23:58;97788.31;;;16.26;100.00
14120;BME280;7138;49.246;9.100;2023-08-06T07:26:25;97786.63;;;16.25;100.00
14120;BME280;7138;49.246;9.100;2023-08-06T07:28:50;97795.34;;;16.24;100.00
14120;BME280;7138;49.246;9.100;2023-08-06T07:31:16;97788.13;;;16.31;100.00
14120;BME280;7138;49.246;9.100;2023-08-06T07:33:42;97780.19;;;16.34;100.00
14120;BME280;7138;49.246;9.100;2023-08-06T07:36:12;97793.63;;;16.23;100.00
14120;BME280;7138;49.246;9.100;2023-08-06T07:38:38;97785.91;;;16.20;100.00
14120;BME280;7138;49.246;9.100;2023-08-06T07:41:04;97791.38;;;16.14;100.00
14120;BME280;7138;49.246;9.100;2023-08-06T07:43:31;97787.13;;;16.12;100.00
14120;BME280;7138;49.246;9.100;2023-08-06T07:45:58;97793.09;;;16.15;100.00
14120;BME280;7138;49.246;9.100;2023-08-06T07:48:24;97783.50;;;16.16;100.00
14120;BME280;7138;49.246;9.100;2023-08-06T07:50:51;97792.97;;;16.18;100.00
14120;BME280;7138;49.246;9.100;2023-08-06T07:53:20;97782.72;;;16.14;100.00
14120;BME280;7138;49.246;9.100;2023-08-06T07:55:50;97779.81;;;16.21;100.00
14120;BME280;7138;49.246;9.100;2023-08-06T07:58:16;97784.78;;;16.27;100.00
14120;BME280;7138;49.246;9.100;2023-08-06T08:00:42;97778.59;;;16.30;100.00
14120;BME280;7138;49.246;9.100;2023-08-06T08:03:11;97794.38;;;16.27;100.00
14120;BME280;7138;49.246;9.100;2023-08-06T08:05:37;97786.94;;;16.39;100.00
14120;BME280;7138;49.246;9.100;2023-08-06T08:08:03;97784.03;;;16.47;100.00
14120;BME280;7138;49.246;9.100;2023-08-06T08:10:31;97786.31;;;16.56;100.00
14120;BME280;7138;49.246;9.100;2023-08-06T08:12:56;97792.66;;;16.49;100.00
14120;BME280;7138;49.246;9.100;2023-08-06T08:15:22;97785.41;;;16.34;100.00
14120;BME280;7138;49.246;9.100;2023-08-06T08:17:48;97776.44;;;16.41;100.00
14120;BME280;7138;49.246;9.100;2023-08-06T08:20:16;97778.94;;;16.44;100.00
14120;BME280;7138;49.246;9.100;2023-08-06T08:22:42;97777.03;;;16.48;100.00
14120;BME280;7138;49.246;9.100;2023-08-06T08:25:08;97771.81;;;16.48;100.00
14120;BME280;7138;49.246;9.100;2023-08-06T08:27:35;97772.75;;;16.47;100.00
14120;BME280;7138;49.246;9.100;2023-08-06T08:30:01;97782.44;;;16.43;100.00
14120;BME280;7138;49.246;9.100;2023-08-06T08:32:27;97778.09;;;16.44;100.00
14120;BME280;7138;49.246;9.100;2023-08-06T08:34:53;97775.97;;;16.53;100.00
14120;BME280;7138;49.246;9.100;2023-08-06T08:37:19;97772.19;;;16.62;100.00
14120;BME280;7138;49.246;9.100;2023-08-06T08:39:45;97778.72;;;16.72;100.00
14120;BME280;7138;49.246;9.100;2023-08-06T08:42:10;97775.97;;;16.75;100.00
14120;BME280;7138;49.246;9.100;2023-08-06T08:44:39;97780.31;;;16.76;100.00
14120;BME280;7138;49.246;9.100;2023-08-06T08:47:07;97762.03;;;16.76;100.00
14120;BME280;7138;49.246;9.100;2023-08-06T08:49:36;97769.38;;;16.66;100.00
14120;BME280;7138;49.246;9.100;2023-08-06T08:52:04;97779.06;;;16.63;100.00
14120;BME280;7138;49.246;9.100;2023-08-06T08:54:34;97769.44;;;16.65;100.00
14120;BME280;7138;49.246;9.100;2023-08-06T08:57:00;97774.78;;;16.62;100.00
14120;BME280;7138;49.246;9.100;2023-08-06T08:59:28;97775.06;;;16.76;100.00
14120;BME280;7138;49.246;9.100;2023-08-06T09:01:56;97772.59;;;16.73;100.00
14120;BME280;7138;49.246;9.100;2023-08-06T09:04:23;97773.38;;;16.75;100.00
14120;BME280;7138;49.246;9.100;2023-08-06T09:06:52;97776.78;;;16.77;100.00
14120;BME280;7138;49.246;9.100;2023-08-06T09:09:25;97769.47;;;16.85;100.00
14120;BME280;7138;49.246;9.100;2023-08-06T09:11:54;97774.81;;;16.82;100.00
14120;BME280;7138;49.246;9.100;2023-08-06T09:14:26;97774.31;;;16.74;100.00
14120;BME280;7138;49.246;9.100;2023-08-06T09:16:52;97775.44;;;16.67;100.00
14120;BME280;7138;49.246;9.100;2023-08-06T09:19:19;97768.88;;;16.78;100.00
14120;BME280;7138;49.246;9.100;2023-08-06T09:21:46;97766.22;;;16.80;100.00
14120;BME280;7138;49.246;9.100;2023-08-06T09:24:15;97773.16;;;16.81;100.00
14120;BME280;7138;49.246;9.100;2023-08-06T09:26:44;97773.69;;;16.89;100.00
14120;BME280;7138;49.246;9.100;2023-08-06T09:29:11;97770.03;;;16.93;100.00
14120;BME280;7138;49.246;9.100;2023-08-06T09:31:41;97770.44;;;17.04;100.00
14120;BME280;7138;49.246;9.100;2023-08-06T09:34:11;97766.41;;;17.17;100.00
14120;BME280;7138;49.246;9.100;2023-08-06T09:36:41;97777.00;;;17.14;100.00
14120;BME280;7138;49.246;9.100;2023-08-06T09:39:13;97761.16;;;16.97;100.00
14120;BME280;7138;49.246;9.100;2023-08-06T09:41:40;97776.56;;;17.03;100.00
14120;BME280;7138;49.246;9.100;2023-08-06T09:44:16;97771.59;;;16.97;100.00
14120;BME280;7138;49.246;9.100;2023-08-06T09:46:47;97776.38;;;17.08;100.00
14120;BME280;7138;49.246;9.100;2023-08-06T09:49:13;97779.56;;;16.94;100.00
14120;BME280;7138;49.246;9.100;2023-08-06T09:51:40;97782.97;;;16.96;100.00
14120;BME280;7138;49.246;9.100;2023-08-06T09:54:08;97774.81;;;17.04;100.00
14120;BME280;7138;49.246;9.100;2023-08-06T09:56:38;97777.00;;;17.14;100.00
14120;BME280;7138;49.246;9.100;2023-08-06T09:59:05;97771.38;;;17.23;100.00
14120;BME280;7138;49.246;9.100;2023-08-06T10:01:35;97771.81;;;17.33;100.00
14120;BME280;7138;49.246;9.100;2023-08-06T10:04:04;97781.44;;;17.32;100.00
14120;BME280;7138;49.246;9.100;2023-08-06T10:06:33;97776.50;;;17.45;100.00
14120;BME280;7138;49.246;9.100;2023-08-06T10:09:01;97777.00;;;17.55;100.00
14120;BME280;7138;49.246;9.100;2023-08-06T10:11:28;97779.31;;;17.62;100.00
14120;BME280;7138;49.246;9.100;2023-08-06T10:14:04;97785.25;;;17.66;100.00
14120;BME280;7138;49.246;9.100;2023-08-06T10:16:33;97775.63;;;17.66;100.00
14120;BME280;7138;49.246;9.100;2023-08-06T10:19:01;97781.25;;;17.77;100.00
14120;BME280;7138;49.246;9.100;2023-08-06T10:21:27;97784.91;;;17.73;100.00
14120;BME280;7138;49.246;9.100;2023-08-06T10:23:56;97781.28;;;17.76;100.00
14120;BME280;7138;49.246;9.100;2023-08-06T10:26:27;97773.44;;;17.76;100.00
14120;BME280;7138;49.246;9.100;2023-08-06T10:28:53;97769.22;;;17.73;100.00
14120;BME280;7138;49.246;9.100;2023-08-06T10:31:20;97776.03;;;17.57;100.00
14120;BME280;7138;49.246;9.100;2023-08-06T10:33:47;97783.69;;;17.62;100.00
14120;BME280;7138;49.246;9.100;2023-08-06T10:36:14;97787.66;;;17.50;100.00
14120;BME280;7138;49.246;9.100;2023-08-06T10:38:48;97784.94;;;17.52;100.00
14120;BME280;7138;49.246;9.100;2023-08-06T10:41:23;97786.53;;;17.35;100.00
14120;BME280;7138;49.246;9.100;2023-08-06T10:43:51;97796.19;;;17.33;100.00
14120;BME280;7138;49.246;9.100;2023-08-06T10:46:27;97782.72;;;17.22;100.00
14120;BME280;7138;49.246;9.100;2023-08-06T10:48:53;97795.06;;;17.19;100.00
14120;BME280;7138;49.246;9.100;2023-08-06T10:51:19;97789.66;;;17.23;100.00
14120;BME280;7138;49.246;9.100;2023-08-06T10:53:46;97801.16;;;17.19;100.00
14120;BME280;7138;49.246;9.100;2023-08-06T10:56:13;97785.72;;;17.13;100.00
14120;BME280;7138;49.246;9.100;2023-08-06T10:58:40;97799.66;;;17.14;100.00
14120;BME280;7138;49.246;9.100;2023-08-06T11:01:07;97793.16;;;17.02;100.00
14120;BME280;7138;49.246;9.100;2023-08-06T11:03:34;97786.25;;;16.79;100.00
14120;BME280;7138;49.246;9.100;2023-08-06T11:06:00;97798.09;;;16.88;100.00
14120;BME280;7138;49.246;9.100;2023-08-06T11:08:26;97792.25;;;16.81;100.00
14120;BME280;7138;49.246;9.100;2023-08-06T11:10:53;97795.47;;;16.88;100.00
14120;BME280;7138;49.246;9.100;2023-08-06T11:13:20;97789.88;;;16.97;100.00
14120;BME280;7138;49.246;9.100;2023-08-06T11:15:47;97786.38;;;16.98;100.00
14120;BME280;7138;49.246;9.100;2023-08-06T11:18:14;97791.47;;;17.01;100.00
14120;BME280;7138;49.246;9.100;2023-08-06T11:20:41;97799.91;;;17.08;100.00
14120;BME280;7138;49.246;9.100;2023-08-06T11:23:10;97792.78;;;17.11;100.00
14120;BME280;7138;49.246;9.100;2023-08-06T11:25:36;97803.88;;;16.96;100.00
14120;BME280;7138;49.246;9.100;2023-08-06T11:28:03;97815.38;;;16.90;100.00
14120;BME280;7138;49.246;9.100;2023-08-06T11:30:29;97812.25;;;16.82;100.00
14120;BME280;7138;49.246;9.100;2023-08-06T11:32:56;97803.75;;;16.77;100.00
14120;BME280;7138;49.246;9.100;2023-08-06T11:35:24;97825.53;;;16.76;100.00
14120;BME280;7138;49.246;9.100;2023-08-06T11:37:49;97812.66;;;16.72;100.00
14120;BME280;7138;49.246;9.100;2023-08-06T11:40:16;97838.06;;;16.68;100.00
14120;BME280;7138;49.246;9.100;2023-08-06T11:42:42;97811.50;;;16.57;100.00
14120;BME280;7138;49.246;9.100;2023-08-06T11:45:09;97831.53;;;16.57;100.00
14120;BME280;7138;49.246;9.100;2023-08-06T11:47:38;97813.41;;;16.52;100.00
14120;BME280;7138;49.246;9.100;2023-08-06T11:50:05;97826.50;;;16.51;100.00
14120;BME280;7138;49.246;9.100;2023-08-06T11:52:33;97826.50;;;16.51;100.00
14120;BME280;7138;49.246;9.100;2023-08-06T11:55:05;97831.59;;;16.55;100.00
14120;BME280;7138;49.246;9.100;2023-08-06T11:57:39;97842.03;;;16.55;100.00
14120;BME280;7138;49.246;9.100;2023-08-06T12:00:07;97849.16;;;16.50;100.00
14120;BME280;7138;49.246;9.100;2023-08-06T12:02:34;97846.06;;;16.40;100.00
14120;BME280;7138;49.246;9.100;2023-08-06T12:05:09;97860.56;;;16.24;100.00
14120;BME280;7138;49.246;9.100;2023-08-06T12:07:41;97860.91;;;16.15;100.00
14120;BME280;7138;49.246;9.100;2023-08-06T12:10:08;97861.09;;;16.11;100.00
14120;BME280;7138;49.246;9.100;2023-08-06T12:12:34;97870.13;;;16.01;100.00
14120;BME280;7138;49.246;9.100;2023-08-06T12:15:01;97874.50;;;16.00;100.00
14120;BME280;7138;49.246;9.100;2023-08-06T12:17:27;97874.44;;;16.02;100.00
14120;BME280;7138;49.246;9.100;2023-08-06T12:19:53;97871.75;;;16.05;100.00
14120;BME280;7138;49.246;9.100;2023-08-06T12:22:19;97878.19;;;15.95;100.00
14120;BME280;7138;49.246;9.100;2023-08-06T12:24:47;97888.50;;;15.98;100.00
14120;BME280;7138;49.246;9.100;2023-08-06T12:27:13;97893.81;;;15.95;100.00
14120;BME280;7138;49.246;9.100;2023-08-06T12:29:41;97902.28;;;16.01;100.00
14120;BME280;7138;49.246;9.100;2023-08-06T12:32:08;97918.94;;;15.97;100.00
14120;BME280;7138;49.246;9.100;2023-08-06T12:34:34;97924.16;;;15.97;100.00
14120;BME280;7138;49.246;9.100;2023-08-06T12:37:00;97926.97;;;15.91;100.00
14120;BME280;7138;49.246;9.100;2023-08-06T12:39:26;97915.84;;;15.86;100.00
14120;BME280;7138;49.246;9.100;2023-08-06T12:41:55;97924.34;;;15.91;100.00
14120;BME280;7138;49.246;9.100;2023-08-06T12:44:23;97933.81;;;15.94;100.00
14120;BME280;7138;49.246;9.100;2023-08-06T12:46:49;97929.47;;;15.94;100.00
14120;BME280;7138;49.246;9.100;2023-08-06T12:49:14;97937.25;;;15.96;100.00
14120;BME280;7138;49.246;9.100;2023-08-06T12:51:40;97945.69;;;16.02;100.00
14120;BME280;7138;49.246;9.100;2023-08-06T12:54:06;97939.53;;;16.05;100.00
14120;BME280;7138;49.246;9.100;2023-08-06T12:56:32;97947.25;;;16.08;100.00
14120;BME280;7138;49.246;9.100;2023-08-06T12:58:59;97935.75;;;16.13;100.00